イカルイト の空港の天気 - METARとTAF

イカルイト空港 ( CYFB / YFB ) - カナダ ヌナブト準州イカルイト
飛行場実況気象(Metar)
観測時間06/25 09:00 EDT (06/25 13:00 UTC)
風向・風速南南東 2m/s
視程10km以上
天気現象
少しの雲 雲底高度 460m
少しの雲 雲底高度 1310m
全天の8割程度の雲 雲底高度 2070m
全天の8割程度の雲 雲底高度 3960m
気温3℃
湿度81%
気圧1012.7hPa
METARCYFB 251300Z 15004KT 110V180 30SM FEW015 FEW043 BKN068 BKN130 03/00 A2989 RMK SC1SC1AC4AC2 SC TR SLP127
過去の天気等 Google飛行場航空写真 Wunderground天気予報

過去48時間のMETAR

飛行場予報(TAF)
発表時間: 6/25 07:38 EDT (6/25 11:38 UTC)
予報対象時間: 25日8時 EDT ~ 26日8時 EDT
風向・風速不定 2m/s
視程10km以上
全天の4割程度の雲 雲底高度 1220m
25日8時 EDT ~ 25日11時 EDT に一時的に
少しの雲 雲底高度 300m
全天の8割程度の雲 雲底高度 1220m
25日11時 EDT から
風向・風速南西 3m/s
視程10km以上
全天の4割程度の雲 雲底高度 300m
全天を覆う雲 雲底高度 1520m
25日11時 EDT ~ 25日14時 EDT に一時的に
視程10km以上
天気現象弱い雨
全天の8割程度の雲 雲底高度 300m
25日14時 EDT から
風向・風速南西 4m/s
視程10km以上
全天の4割程度の雲 雲底高度 1520m
全天の8割程度の雲 雲底高度 2440m
25日14時 EDT ~ 25日23時 EDT に一時的に
視程10km以上
天気現象弱いしゅう雨
全天の8割程度の雲 雲底高度 1520m
25日16時 EDT ~ 25日18時 EDT に徐々に
風向・風速南南東 6m/s
25日23時 EDT から
風向・風速南東 10m/s
視程10km以上
天気現象弱い雨
全天の4割程度の雲 雲底高度 240m
全天を覆う雲 雲底高度 910m
25日23時 EDT ~ 26日8時 EDT に一時的に
視程6440m
天気現象弱いしゅう雨 もや
全天の8割程度の雲 雲底高度 240m
全天を覆う雲 雲底高度 460m
TAF CYFB 251138Z 2512/2612 VRB03KT P6SM SCT040
TEMPO 2512/2515 FEW010 BKN040
FM251500 22005KT P6SM SCT010 OVC050
TEMPO 2515/2518 P6SM -RA BKN010
FM251800 22007KT P6SM SCT050 BKN080
TEMPO 2518/2603 P6SM -SHRA BKN050
BECMG 2520/2522 16012KT
FM260300 14020KT P6SM -RA SCT008 OVC030
TEMPO 2603/2612 4SM -SHRA BR BKN008 OVC015 RMK NXT FCST BY 251800Z